Time;durP1;ratioP1;P1;durP2;ratioP2;P2;SDS_P1;SDS_P2;PMS_P1;PMS_P2;Temp;Humidity;BMP_temperature;BMP_pressure;BME280_temperature;BME280_humidity;BME280_pressure;Samples;Min_cycle;Max_cycle;Signal;HPM_P1;HPM_P2
2022/02/16 00:00:14;;;;;;;0.80;0.60;;;17.30;60.70;;;;;;10412403;28;20220;-65
2022/02/16 00:05:37;;;;;;;0.50;0.40;;;17.30;60.70;;;;;;10411710;28;20201;-65
2022/02/16 00:10:59;;;;;;;0.97;0.40;;;17.30;60.80;;;;;;10411279;28;20366;-65
2022/02/16 00:16:23;;;;;;;0.70;0.50;;;17.30;60.80;;;;;;10411175;28;20657;-65
2022/02/16 00:21:45;;;;;;;1.73;0.60;;;17.30;60.80;;;;;;10402985;28;20221;-65
2022/02/16 00:27:07;;;;;;;0.70;0.50;;;17.30;60.90;;;;;;10410748;28;20682;-65
2022/02/16 00:32:31;;;;;;;0.60;0.60;;;17.30;60.90;;;;;;10410760;28;20667;-65
2022/02/16 00:37:53;;;;;;;0.97;0.60;;;17.30;60.90;;;;;;10410634;28;20218;-65
2022/02/16 00:43:15;;;;;;;0.60;0.33;;;17.30;61.00;;;;;;10410394;28;20205;-65
2022/02/16 00:48:38;;;;;;;0.63;0.40;;;17.20;61.00;;;;;;10410634;28;20213;-65
2022/02/16 00:54:00;;;;;;;1.07;0.50;;;17.30;61.00;;;;;;10408998;28;20204;-65
2022/02/16 00:59:23;;;;;;;0.67;0.30;;;17.20;61.00;;;;;;10408407;28;20595;-65
2022/02/16 01:04:46;;;;;;;0.70;0.50;;;17.30;61.00;;;;;;10409739;28;20198;-65
2022/02/16 01:10:09;;;;;;;0.60;0.40;;;17.20;61.00;;;;;;10408716;28;20210;-65
2022/02/16 01:15:31;;;;;;;1.13;0.50;;;17.20;61.70;;;;;;10408467;28;20655;-66
2022/02/16 01:20:55;;;;;;;0.63;0.50;;;17.20;61.10;;;;;;10409519;28;20237;-65
2022/02/16 01:26:19;;;;;;;0.50;0.50;;;17.20;61.10;;;;;;10409832;28;20194;-65
2022/02/16 01:31:41;;;;;;;0.47;0.30;;;17.20;61.10;;;;;;10407809;28;20220;-65
2022/02/16 01:37:05;;;;;;;0.70;0.40;;;17.20;61.10;;;;;;10409202;28;20226;-65
2022/02/16 01:42:27;;;;;;;1.00;0.50;;;17.20;61.10;;;;;;10408975;28;20201;-65
2022/02/16 01:47:49;;;;;;;0.37;0.33;;;17.20;61.20;;;;;;10368458;28;20211;-65
2022/02/16 01:53:12;;;;;;;0.50;0.50;;;17.20;61.30;;;;;;10410374;28;20201;-65
2022/02/16 01:58:35;;;;;;;0.67;0.40;;;17.20;61.30;;;;;;10377148;28;20226;-66
2022/02/16 02:03:57;;;;;;;0.73;0.27;;;17.20;61.20;;;;;;10400557;28;20189;-65
2022/02/16 02:09:21;;;;;;;0.40;0.33;;;17.30;61.30;;;;;;10415643;28;20205;-65
2022/02/16 02:14:43;;;;;;;1.27;0.60;;;17.20;61.30;;;;;;10416248;28;20202;-65
2022/02/16 02:20:20;;;;;;;0.70;0.40;;;17.20;61.30;;;;;;10417002;28;20217;-66
2022/02/16 02:25:50;;;;;;;0.40;0.40;;;17.20;61.20;;;;;;10417392;28;20273;-65
2022/02/16 02:31:12;;;;;;;0.30;0.30;;;17.20;61.30;;;;;;10416548;28;20580;-65
2022/02/16 02:36:36;;;;;;;0.73;0.40;;;17.20;61.40;;;;;;10417875;28;20197;-66
2022/02/16 02:41:58;;;;;;;0.20;0.20;;;17.20;61.40;;;;;;10418239;28;20200;-65
2022/02/16 02:47:20;;;;;;;0.40;0.40;;;17.20;61.50;;;;;;10416679;28;20221;-65
2022/02/16 02:52:43;;;;;;;0.30;0.30;;;17.20;61.40;;;;;;10415889;28;20198;-65
2022/02/16 02:58:06;;;;;;;0.73;0.40;;;17.20;61.40;;;;;;10421422;28;20225;-65
2022/02/16 03:03:28;;;;;;;0.30;0.30;;;17.20;61.40;;;;;;10413359;28;20221;-65
2022/02/16 03:08:52;;;;;;;0.50;0.37;;;17.20;61.50;;;;;;10413528;28;20217;-65
2022/02/16 03:14:14;;;;;;;0.40;0.30;;;17.20;61.50;;;;;;10413460;28;20194;-65
2022/02/16 03:19:36;;;;;;;0.40;0.30;;;17.20;61.60;;;;;;10414911;28;20249;-65
2022/02/16 03:25:01;;;;;;;0.80;0.47;;;17.20;61.60;;;;;;10417941;28;20202;-65
2022/02/16 03:30:23;;;;;;;0.47;0.20;;;17.20;61.60;;;;;;10414140;28;20216;-65
2022/02/16 03:35:45;;;;;;;0.50;0.30;;;17.20;61.60;;;;;;10412046;28;20316;-65
2022/02/16 03:41:09;;;;;;;0.33;0.20;;;17.20;61.60;;;;;;10423673;22;20609;-66
2022/02/16 03:46:31;;;;;;;0.20;0.20;;;17.20;61.60;;;;;;10372347;28;20206;-67
2022/02/16 03:51:53;;;;;;;0.47;0.20;;;17.20;61.60;;;;;;10364659;28;20222;-67
2022/02/16 03:57:17;;;;;;;0.50;0.47;;;17.10;61.80;;;;;;10372791;28;20197;-67
2022/02/16 04:02:39;;;;;;;0.97;0.33;;;17.10;61.60;;;;;;10373120;28;20226;-67
2022/02/16 04:08:01;;;;;;;0.30;0.30;;;17.20;61.70;;;;;;10372915;28;20195;-67
2022/02/16 04:13:24;;;;;;;0.57;0.40;;;17.20;61.70;;;;;;10370981;28;20240;-68
2022/02/16 04:18:46;;;;;;;0.30;0.30;;;17.20;61.70;;;;;;10375058;28;20708;-67
2022/02/16 04:24:09;;;;;;;0.30;0.30;;;17.20;61.80;;;;;;10374540;28;20230;-67
2022/02/16 04:29:32;;;;;;;1.03;0.40;;;17.20;61.70;;;;;;10371817;28;20195;-67
2022/02/16 04:34:54;;;;;;;0.60;0.30;;;17.20;61.80;;;;;;10371344;28;20198;-67
2022/02/16 04:40:17;;;;;;;0.60;0.30;;;17.20;61.80;;;;;;10370165;28;20225;-67
2022/02/16 04:45:41;;;;;;;0.27;0.20;;;17.20;61.80;;;;;;10371756;28;20581;-67
2022/02/16 04:51:03;;;;;;;0.30;0.30;;;17.20;61.70;;;;;;10370476;28;20234;-67
2022/02/16 04:56:25;;;;;;;0.53;0.20;;;17.10;61.70;;;;;;10370722;28;20205;-67
2022/02/16 05:01:48;;;;;;;0.50;0.23;;;17.10;61.70;;;;;;10370441;28;20226;-67
2022/02/16 05:07:11;;;;;;;0.30;0.30;;;17.20;61.80;;;;;;10371088;28;20209;-67
2022/02/16 05:12:33;;;;;;;0.37;0.20;;;17.20;61.80;;;;;;10370626;28;20217;-67
2022/02/16 05:17:57;;;;;;;0.13;0.13;;;17.20;61.80;;;;;;10370272;28;20233;-67
2022/02/16 05:23:19;;;;;;;0.10;0.10;;;17.20;61.80;;;;;;10363849;28;20893;-67
2022/02/16 05:28:41;;;;;;;0.20;0.20;;;17.20;61.80;;;;;;10369217;28;20205;-67
2022/02/16 05:34:05;;;;;;;0.73;0.20;;;17.20;61.80;;;;;;10364893;28;20218;-66
2022/02/16 05:39:27;;;;;;;0.60;0.20;;;17.30;61.80;;;;;;10361857;28;20892;-67
2022/02/16 05:44:49;;;;;;;0.20;0.20;;;17.20;61.70;;;;;;10362517;28;20206;-66
2022/02/16 05:50:13;;;;;;;0.23;0.23;;;17.30;61.80;;;;;;10366693;28;20222;-67
2022/02/16 05:55:35;;;;;;;0.20;0.20;;;17.20;61.80;;;;;;10369887;28;20867;-67
2022/02/16 06:00:57;;;;;;;0.27;0.20;;;17.20;61.80;;;;;;10336652;28;20223;-67
2022/02/16 06:06:21;;;;;;;0.57;0.20;;;17.20;61.80;;;;;;10330825;28;20195;-67
2022/02/16 06:11:43;;;;;;;0.40;0.20;;;17.20;61.80;;;;;;10359017;28;20281;-67
2022/02/16 06:17:05;;;;;;;0.20;0.10;;;17.30;61.90;;;;;;10377030;28;20208;-67
2022/02/16 06:22:29;;;;;;;0.20;0.20;;;17.30;62.00;;;;;;10408968;28;20222;-67
2022/02/16 06:27:52;;;;;;;0.37;0.17;;;17.30;62.00;;;;;;10409337;28;20190;-67
2022/02/16 06:33:14;;;;;;;0.13;0.13;;;17.20;62.00;;;;;;10406334;28;20214;-68
2022/02/16 06:38:37;;;;;;;0.43;0.10;;;17.30;62.00;;;;;;10379044;28;20221;-70
2022/02/16 06:43:59;;;;;;;0.10;0.10;;;17.30;62.10;;;;;;10375357;28;20492;-68
2022/02/16 06:49:21;;;;;;;0.10;0.10;;;17.30;62.40;;;;;;10376681;28;20612;-71
2022/02/16 06:54:45;;;;;;;0.37;0.20;;;17.40;62.40;;;;;;10350742;28;20205;-70
2022/02/16 07:00:08;;;;;;;0.40;0.20;;;17.40;62.30;;;;;;10376235;28;20230;-69
2022/02/16 07:05:30;;;;;;;0.20;0.20;;;17.40;62.20;;;;;;10374693;28;20207;-71
2022/02/16 07:10:53;;;;;;;1.50;0.20;;;17.50;62.30;;;;;;10375673;28;20218;-68
2022/02/16 07:16:15;;;;;;;0.20;0.10;;;17.40;62.20;;;;;;10374799;28;20555;-68
2022/02/16 07:21:37;;;;;;;0.30;0.20;;;17.50;61.90;;;;;;10374475;28;20218;-68
2022/02/16 07:27:02;;;;;;;0.60;0.27;;;17.40;61.90;;;;;;10373992;28;20205;-68
2022/02/16 07:32:24;;;;;;;0.40;0.23;;;17.40;61.90;;;;;;10373878;28;20214;-67
2022/02/16 07:37:46;;;;;;;0.20;0.20;;;17.40;62.10;;;;;;10369875;28;20190;-69
2022/02/16 07:43:09;;;;;;;1.03;0.47;;;17.40;62.20;;;;;;10373446;28;20222;-69
2022/02/16 07:48:32;;;;;;;0.63;0.20;;;17.30;62.10;;;;;;10372573;28;20194;-65
2022/02/16 07:53:54;;;;;;;0.30;0.30;;;17.30;62.10;;;;;;10367447;28;20215;-67
2022/02/16 07:59:18;;;;;;;0.20;0.20;;;17.30;62.20;;;;;;10356155;28;20238;-67
2022/02/16 08:04:40;;;;;;;0.13;0.13;;;17.30;62.20;;;;;;10333113;28;20207;-70
2022/02/16 08:10:02;;;;;;;0.40;0.20;;;17.30;62.30;;;;;;10369349;28;20217;-70
2022/02/16 08:15:27;;;;;;;0.20;0.20;;;17.40;62.50;;;;;;10376039;28;20205;-71
2022/02/16 08:20:49;;;;;;;0.57;0.30;;;17.40;62.40;;;;;;10375162;28;20218;-71
2022/02/16 08:26:11;;;;;;;0.97;0.30;;;17.50;62.50;;;;;;10340083;28;20199;-72
2022/02/16 08:31:36;;;;;;;0.43;0.20;;;17.50;62.40;;;;;;10365334;28;20215;-71
2022/02/16 08:36:58;;;;;;;1.13;0.40;;;17.50;62.50;;;;;;10371355;28;20203;-71
2022/02/16 08:42:20;;;;;;;0.40;0.20;;;17.50;62.50;;;;;;10373614;28;20226;-72
2022/02/16 08:47:43;;;;;;;1.10;0.20;;;17.50;62.50;;;;;;10372197;28;20198;-72
2022/02/16 08:53:06;;;;;;;0.67;0.20;;;17.50;62.40;;;;;;10370815;28;20586;-71
2022/02/16 08:58:29;;;;;;;0.50;0.20;;;17.60;62.50;;;;;;10371146;28;20217;-69
2022/02/16 09:03:52;;;;;;;0.30;0.20;;;17.60;62.50;;;;;;10370818;28;20222;-69
2022/02/16 09:09:14;;;;;;;0.60;0.20;;;17.50;62.50;;;;;;10370068;28;20201;-69
2022/02/16 09:14:37;;;;;;;2.23;0.30;;;17.40;62.60;;;;;;10348899;28;20720;-69
2022/02/16 09:20:00;;;;;;;0.50;0.20;;;17.40;62.70;;;;;;10329975;28;20290;-68
2022/02/16 09:25:22;;;;;;;0.60;0.27;;;17.40;62.70;;;;;;10330399;28;20199;-69
2022/02/16 09:30:44;;;;;;;0.83;0.20;;;17.40;62.80;;;;;;10356211;28;20257;-69
2022/02/16 09:36:08;;;;;;;0.37;0.20;;;17.40;62.80;;;;;;10368399;28;20727;-68
2022/02/16 09:41:31;;;;;;;0.30;0.30;;;17.40;62.80;;;;;;10381501;23;20238;-69
2022/02/16 09:46:53;;;;;;;0.60;0.20;;;17.40;62.90;;;;;;10331320;28;20206;-69
2022/02/16 09:52:16;;;;;;;0.40;0.20;;;17.40;62.90;;;;;;10357742;28;20206;-70
2022/02/16 09:57:38;;;;;;;0.30;0.30;;;17.40;62.90;;;;;;10369821;28;20221;-70
2022/02/16 10:03:11;;;;;;;0.27;0.03;;;17.40;63.50;;;;;;10369478;28;20744;-69
2022/02/16 10:08:46;;;;;;;0.20;0.20;;;17.40;62.90;;;;;;10357454;28;20678;-69
2022/02/16 10:14:19;;;;;;;0.20;0.20;;;17.40;62.90;;;;;;10333767;28;20222;-70
2022/02/16 10:19:48;;;;;;;0.40;0.23;;;17.40;62.90;;;;;;10337301;28;20226;-69
2022/02/16 10:25:16;;;;;;;0.43;0.27;;;17.40;63.00;;;;;;10360738;28;20637;-69
2022/02/16 10:30:42;;;;;;;0.20;0.20;;;17.40;63.10;;;;;;10350842;28;20294;-69
2022/02/16 10:36:06;;;;;;;0.63;0.20;;;17.40;63.10;;;;;;10336502;28;20195;-69
2022/02/16 10:41:34;;;;;;;0.10;0.10;;;17.40;63.10;;;;;;10338039;28;20222;-69
2022/02/16 10:47:01;;;;;;;0.27;0.20;;;17.40;63.10;;;;;;10365789;28;20187;-69
2022/02/16 10:52:23;;;;;;;0.37;0.23;;;17.40;63.10;;;;;;10380279;28;20209;-69
2022/02/16 10:57:47;;;;;;;0.37;0.37;;;17.40;63.20;;;;;;10375632;28;20209;-69
2022/02/16 11:03:11;;;;;;;0.43;0.27;;;17.40;63.20;;;;;;10341018;28;20226;-72
2022/02/16 11:08:35;;;;;;;0.20;0.20;;;17.40;63.20;;;;;;10333663;28;20203;-71
2022/02/16 11:14:03;;;;;;;2.10;0.20;;;17.40;63.30;;;;;;10333875;28;20210;-72
2022/02/16 11:19:28;;;;;;;0.20;0.20;;;17.50;63.90;;;;;;10334962;28;20221;-72
2022/02/16 11:24:51;;;;;;;0.10;0.10;;;17.50;63.30;;;;;;10336511;28;20301;-72
2022/02/16 11:30:25;;;;;;;0.20;0.20;;;17.50;63.20;;;;;;10352355;28;20191;-72
2022/02/16 11:35:53;;;;;;;0.37;0.20;;;17.50;63.20;;;;;;10370784;28;20198;-72
2022/02/16 11:41:23;;;;;;;0.50;0.30;;;17.60;63.20;;;;;;10370306;28;20235;-72
2022/02/16 11:46:54;;;;;;;0.20;0.20;;;17.60;63.20;;;;;;10373754;28;20205;-72
2022/02/16 11:52:34;;;;;;;0.20;0.17;;;17.50;63.20;;;;;;10372631;28;20217;-71
2022/02/16 11:57:58;;;;;;;0.20;0.17;;;17.60;63.10;;;;;;10372210;28;20298;-71
2022/02/16 12:03:26;;;;;;;0.10;0.10;;;17.60;63.20;;;;;;10370204;28;20222;-72
2022/02/16 12:09:07;;;;;;;0.30;0.20;;;17.60;63.20;;;;;;10351712;28;20194;-71
2022/02/16 12:14:29;;;;;;;0.20;0.10;;;17.60;63.10;;;;;;10332632;28;20357;-71
2022/02/16 12:19:54;;;;;;;0.33;0.10;;;17.60;63.30;;;;;;10332200;28;20215;-72
2022/02/16 12:25:16;;;;;;;0.03;0.03;;;17.60;63.30;;;;;;10332008;28;20195;-72
2022/02/16 12:30:41;;;;;;;0.20;0.20;;;17.60;63.30;;;;;;10369878;28;20210;-70
2022/02/16 12:36:06;;;;;;;0.27;0.20;;;17.60;63.30;;;;;;10370440;28;20206;-73
2022/02/16 12:41:29;;;;;;;0.10;0.10;;;17.60;63.30;;;;;;10370451;28;20222;-72
2022/02/16 12:46:52;;;;;;;0.17;0.10;;;17.60;63.30;;;;;;10361711;28;20193;-72
2022/02/16 12:52:16;;;;;;;0.50;0.30;;;17.60;63.30;;;;;;10367061;28;20244;-72
2022/02/16 12:57:38;;;;;;;0.30;0.20;;;17.60;63.30;;;;;;10375696;28;20196;-72
2022/02/16 13:03:01;;;;;;;0.27;0.20;;;17.60;63.30;;;;;;10330297;28;20225;-72
2022/02/16 13:08:28;;;;;;;2.20;0.60;;;17.60;63.40;;;;;;10330377;28;20662;-69
2022/02/16 13:13:50;;;;;;;1.77;0.40;;;17.60;63.40;;;;;;10330213;28;20274;-72
2022/02/16 13:19:12;;;;;;;1.60;0.30;;;17.50;63.50;;;;;;10330145;28;20195;-72
2022/02/16 13:24:36;;;;;;;1.80;0.47;;;17.60;63.60;;;;;;10343530;28;20743;-72
2022/02/16 13:30:04;;;;;;;2.07;0.60;;;17.60;63.60;;;;;;10369474;28;20186;-69
2022/02/16 13:35:28;;;;;;;0.43;0.20;;;17.60;63.70;;;;;;10365917;28;20206;-70
2022/02/16 13:40:53;;;;;;;0.70;0.50;;;17.50;63.80;;;;;;10363523;28;20226;-70
2022/02/16 13:46:17;;;;;;;0.93;0.40;;;17.60;64.50;;;;;;10360121;28;20273;-70
2022/02/16 13:51:49;;;;;;;1.03;0.50;;;17.60;64.00;;;;;;10364637;28;20218;-71
2022/02/16 13:57:16;;;;;;;1.50;0.57;;;17.60;64.00;;;;;;10328937;28;20206;-71
2022/02/16 14:02:39;;;;;;;0.37;0.30;;;17.60;64.10;;;;;;10336898;28;20256;-70
2022/02/16 14:08:02;;;;;;;1.07;0.43;;;17.60;64.10;;;;;;10352402;28;20195;-70
2022/02/16 14:13:26;;;;;;;0.40;0.40;;;17.60;64.10;;;;;;10323301;28;20211;-70
2022/02/16 14:19:22;;;;;;;0.67;0.40;;;17.60;64.10;;;;;;10323537;28;20203;-70
2022/02/16 14:24:30;;;;;;;1.27;0.33;;;17.60;64.20;;;;;;10361913;28;20218;-70
2022/02/16 14:29:54;;;;;;;0.40;0.30;;;17.60;64.20;;;;;;10360761;28;20197;-70
2022/02/16 14:35:17;;;;;;;3.40;0.50;;;17.60;64.20;;;;;;10324010;28;20199;-71
2022/02/16 14:40:39;;;;;;;0.40;0.40;;;17.60;64.20;;;;;;10355326;28;20227;-71
2022/02/16 14:46:03;;;;;;;0.53;0.40;;;17.60;64.20;;;;;;10361862;28;20201;-71
2022/02/16 14:51:28;;;;;;;1.20;0.40;;;17.60;64.30;;;;;;10362358;28;20697;-70
2022/02/16 14:56:50;;;;;;;2.47;0.50;;;17.60;64.30;;;;;;10350895;28;20191;-71
2022/02/16 15:02:13;;;;;;;0.80;0.30;;;17.60;64.40;;;;;;10369992;28;20218;-71
2022/02/16 15:07:35;;;;;;;1.80;0.40;;;17.60;64.30;;;;;;10369766;28;20198;-71
2022/02/16 15:12:58;;;;;;;1.13;0.30;;;17.60;64.40;;;;;;10347156;28;20675;-71
2022/02/16 15:18:22;;;;;;;1.13;0.40;;;17.60;64.30;;;;;;10329807;28;20199;-71
2022/02/16 15:23:44;;;;;;;1.17;0.30;;;17.70;64.40;;;;;;10328473;28;20234;-71
2022/02/16 15:29:07;;;;;;;1.20;0.50;;;17.70;64.40;;;;;;10328788;28;20211;-71
2022/02/16 15:34:30;;;;;;;0.97;0.50;;;17.70;64.50;;;;;;10365224;28;20728;-73
2022/02/16 15:39:52;;;;;;;1.47;0.40;;;17.60;64.40;;;;;;10372947;28;20225;-68
2022/02/16 15:45:15;;;;;;;0.90;0.30;;;17.60;64.40;;;;;;10446974;23;20791;-64
2022/02/16 15:50:39;;;;;;;1.17;0.50;;;17.60;64.60;;;;;;10437536;28;20654;-65
2022/02/16 15:56:02;;;;;;;1.27;0.53;;;17.60;64.70;;;;;;10409683;28;20313;-64
2022/02/16 16:01:24;;;;;;;0.50;0.40;;;17.60;64.70;;;;;;10410938;28;20421;-65
2022/02/16 16:06:48;;;;;;;2.23;0.57;;;17.60;64.60;;;;;;10413535;28;20205;-65
2022/02/16 16:12:10;;;;;;;3.00;0.67;;;17.70;64.70;;;;;;10419482;28;20198;-64
2022/02/16 16:17:33;;;;;;;1.87;0.60;;;17.60;64.80;;;;;;10442280;28;20217;-64
2022/02/16 16:22:56;;;;;;;0.50;0.47;;;17.60;64.80;;;;;;10452538;28;20594;-64
2022/02/16 16:28:19;;;;;;;1.23;0.77;;;17.60;64.90;;;;;;10437560;28;20216;-64
2022/02/16 16:33:41;;;;;;;0.63;0.60;;;17.50;64.90;;;;;;10415445;28;20220;-64
2022/02/16 16:39:06;;;;;;;0.93;0.50;;;17.50;65.00;;;;;;10411945;28;20213;-64
2022/02/16 16:44:28;;;;;;;3.03;0.70;;;17.50;65.10;;;;;;10410094;28;20218;-66
2022/02/16 16:49:51;;;;;;;0.83;0.43;;;17.50;65.10;;;;;;10434665;28;20233;-64
2022/02/16 16:55:15;;;;;;;2.40;0.60;;;17.50;65.20;;;;;;10426299;28;20233;-64
2022/02/16 17:00:38;;;;;;;3.03;0.50;;;17.50;65.20;;;;;;10427511;28;20226;-65
2022/02/16 17:06:00;;;;;;;1.13;0.60;;;17.50;65.30;;;;;;10409201;28;20198;-65
2022/02/16 17:11:24;;;;;;;1.20;0.70;;;17.50;65.30;;;;;;10409564;28;20214;-65
2022/02/16 17:16:46;;;;;;;1.13;0.60;;;17.50;65.30;;;;;;10442249;28;20196;-66
2022/02/16 17:22:09;;;;;;;0.93;0.60;;;17.50;65.30;;;;;;10431607;28;20226;-68
2022/02/16 17:27:33;;;;;;;1.53;0.83;;;17.60;65.20;;;;;;10407491;28;20217;-64
2022/02/16 17:32:55;;;;;;;1.77;0.80;;;17.50;65.30;;;;;;10403902;28;20659;-64
2022/02/16 17:38:17;;;;;;;2.60;0.80;;;17.50;65.40;;;;;;10408388;28;20213;-66
2022/02/16 17:43:41;;;;;;;1.67;0.63;;;17.60;65.60;;;;;;10408369;28;20224;-65
2022/02/16 17:49:04;;;;;;;2.17;0.80;;;17.50;65.50;;;;;;10437690;28;20220;-66
2022/02/16 17:54:27;;;;;;;2.97;1.00;;;17.50;65.60;;;;;;10448954;28;20311;-66
2022/02/16 17:59:51;;;;;;;1.30;0.70;;;17.50;65.50;;;;;;10426337;28;20217;-66
2022/02/16 18:05:14;;;;;;;0.87;0.50;;;17.50;65.50;;;;;;10407781;28;20200;-66
2022/02/16 18:10:37;;;;;;;1.20;0.50;;;17.50;65.50;;;;;;10408467;28;20231;-66
2022/02/16 18:16:01;;;;;;;1.17;0.70;;;17.50;65.50;;;;;;10410890;28;20674;-66
2022/02/16 18:21:23;;;;;;;1.10;0.60;;;17.50;65.50;;;;;;10418082;28;20233;-66
2022/02/16 18:26:46;;;;;;;1.77;0.70;;;17.50;65.60;;;;;;10440574;28;20197;-65
2022/02/16 18:32:10;;;;;;;2.13;0.70;;;17.50;66.20;;;;;;10449022;28;20276;-65
2022/02/16 18:37:32;;;;;;;3.07;1.00;;;17.50;65.70;;;;;;10431038;28;20224;-66
2022/02/16 18:42:54;;;;;;;1.70;0.83;;;17.50;65.70;;;;;;10414849;28;20220;-66
2022/02/16 18:48:18;;;;;;;1.27;0.83;;;17.50;65.80;;;;;;10422585;28;20694;-65
2022/02/16 18:53:40;;;;;;;1.77;0.83;;;17.50;65.60;;;;;;10415821;28;20194;-66
2022/02/16 18:59:03;;;;;;;2.23;0.90;;;17.60;65.40;;;;;;10428295;28;20221;-66
2022/02/16 19:04:26;;;;;;;1.90;1.00;;;17.60;65.30;;;;;;10443017;28;20221;-66
2022/02/16 19:09:48;;;;;;;2.88;1.30;;;17.70;65.40;;;;;;10420118;28;20416;-65
2022/02/16 19:15:12;;;;;;;1.57;0.97;;;18.10;64.10;;;;;;10428437;28;20670;-65
2022/02/16 19:20:35;;;;;;;6.27;1.60;;;17.80;65.00;;;;;;10445239;28;20821;-66
2022/02/16 19:25:57;;;;;;;2.63;1.40;;;17.70;65.70;;;;;;10420256;28;20190;-66
2022/02/16 19:31:20;;;;;;;2.77;1.10;;;17.70;65.80;;;;;;10412951;28;20213;-66
2022/02/16 19:36:43;;;;;;;3.17;1.30;;;17.70;65.70;;;;;;10440353;28;20201;-66
2022/02/16 19:42:06;;;;;;;2.50;1.20;;;17.70;65.80;;;;;;10429447;28;20232;-66
2022/02/16 19:47:28;;;;;;;3.23;1.17;;;17.60;65.80;;;;;;10417419;28;20595;-66
2022/02/16 19:52:52;;;;;;;3.93;1.27;;;17.60;65.80;;;;;;10432428;28;20185;-66
2022/02/16 19:58:14;;;;;;;4.97;1.47;;;17.60;65.80;;;;;;10414833;28;20302;-66
2022/02/16 20:03:36;;;;;;;2.30;1.33;;;17.60;65.80;;;;;;10410674;28;20591;-66
2022/02/16 20:09:00;;;;;;;4.43;1.30;;;17.60;65.80;;;;;;10422236;28;20225;-66
2022/02/16 20:14:22;;;;;;;2.30;1.00;;;17.60;65.80;;;;;;10419376;28;20194;-66
2022/02/16 20:19:44;;;;;;;2.30;0.97;;;17.60;65.80;;;;;;10411770;28;20226;-65
2022/02/16 20:25:10;;;;;;;2.70;1.17;;;17.60;65.80;;;;;;10421433;28;20308;-66
2022/02/16 20:30:32;;;;;;;2.90;1.17;;;17.60;65.80;;;;;;10423238;28;20591;-66
2022/02/16 20:35:54;;;;;;;1.80;0.83;;;17.60;65.80;;;;;;10413705;28;20185;-65
2022/02/16 20:41:18;;;;;;;2.67;1.10;;;17.60;65.80;;;;;;10410922;28;20228;-66
2022/02/16 20:46:40;;;;;;;1.60;0.97;;;17.60;65.80;;;;;;10420063;28;20201;-66
2022/02/16 20:52:02;;;;;;;2.03;1.00;;;17.60;65.80;;;;;;10424169;28;20216;-66
2022/02/16 20:57:31;;;;;;;2.10;1.10;;;17.60;65.80;;;;;;10409605;28;20709;-65
2022/02/16 21:02:53;;;;;;;1.50;0.80;;;17.60;65.80;;;;;;10410709;28;20683;-66
2022/02/16 21:08:19;;;;;;;2.07;1.00;;;17.60;66.40;;;;;;10435420;28;20678;-66
2022/02/16 21:13:44;;;;;;;3.10;0.90;;;17.60;65.90;;;;;;10416748;28;20198;-66
2022/02/16 21:19:06;;;;;;;2.73;1.07;;;17.60;65.80;;;;;;10427847;28;20221;-66
2022/02/16 21:24:28;;;;;;;1.97;1.00;;;17.60;65.80;;;;;;10411451;28;20213;-66
2022/02/16 21:29:53;;;;;;;2.00;0.87;;;17.60;65.80;;;;;;10432925;28;20213;-66
2022/02/16 21:35:15;;;;;;;1.83;1.00;;;17.60;65.80;;;;;;10408354;28;20592;-66
2022/02/16 21:40:38;;;;;;;1.50;0.70;;;17.60;65.90;;;;;;10427635;28;20213;-66
2022/02/16 21:46:01;;;;;;;1.33;0.60;;;17.60;65.90;;;;;;10428358;23;20298;-71
2022/02/16 21:51:23;;;;;;;2.70;0.70;;;17.60;65.90;;;;;;10448405;28;20232;-71
2022/02/16 21:56:46;;;;;;;2.37;0.80;;;17.60;66.00;;;;;;10449535;28;20201;-71
2022/02/16 22:02:09;;;;;;;2.27;0.90;;;17.50;65.90;;;;;;10449372;28;20343;-71
2022/02/16 22:07:32;;;;;;;1.47;0.63;;;17.50;66.00;;;;;;10450548;28;20216;-70
2022/02/16 22:12:54;;;;;;;1.10;0.67;;;17.60;66.00;;;;;;10458604;28;20728;-69
2022/02/16 22:18:17;;;;;;;1.73;0.77;;;17.50;66.00;;;;;;10434452;28;20697;-68
2022/02/16 22:23:39;;;;;;;1.47;0.67;;;17.50;66.10;;;;;;10450017;28;20591;-71
2022/02/16 22:29:02;;;;;;;1.27;0.77;;;17.50;66.10;;;;;;10417591;28;20233;-71
2022/02/16 22:34:25;;;;;;;0.90;0.60;;;17.50;66.10;;;;;;10438675;28;20666;-71
2022/02/16 22:39:47;;;;;;;0.80;0.60;;;17.50;66.10;;;;;;10459211;28;20678;-72
2022/02/16 22:45:11;;;;;;;1.97;0.60;;;17.50;66.10;;;;;;10439147;28;20229;-71
2022/02/16 22:50:35;;;;;;;1.57;0.70;;;17.50;66.10;;;;;;10446416;28;20209;-71
2022/02/16 22:55:57;;;;;;;1.20;0.80;;;17.50;66.10;;;;;;10457188;28;20566;-71
2022/02/16 23:01:19;;;;;;;1.17;0.60;;;17.50;66.10;;;;;;10462980;28;20229;-69
2022/02/16 23:18:03;;;;;;;0.90;0.60;;;17.50;66.10;;;;;;10452909;28;20197;-68
2022/02/16 23:23:27;;;;;;;1.13;0.50;;;17.40;66.10;;;;;;10430079;28;20727;-71
2022/02/16 23:28:50;;;;;;;1.10;0.57;;;17.40;66.10;;;;;;10453754;28;20221;-71
2022/02/16 23:34:12;;;;;;;1.70;0.80;;;17.40;66.60;;;;;;10451707;28;20653;-71
2022/02/16 23:39:35;;;;;;;0.73;0.40;;;17.50;66.00;;;;;;10450451;28;20217;-71
2022/02/16 23:44:58;;;;;;;0.93;0.47;;;17.40;65.80;;;;;;10450497;28;20224;-71
2022/02/16 23:50:21;;;;;;;1.50;0.60;;;17.40;65.80;;;;;;10451829;28;20689;-71
2022/02/16 23:55:44;;;;;;;1.43;0.77;;;17.40;65.80;;;;;;10448856;28;20558;-71
